Gooderham, Canada
Current Conditions -  °F | °C
As of 6:00 PM on Wednesday 22 Oct 2014 (Local Time) from CYQA Reporting Station
Clear Clear  
Wind Chill: 12°   Ceiling: Unl
Heat Index: 12°   Visibility: 9mi
Dew Point:   Wind: 3mph
Humidity: 58%   Direction: 360°N
Pressure: 30.24"   Gusts: NA
Location:  44.9°N, 78.38°W
Report Text: CYQA 222200Z AUTO 36003KT 330V050 9SM CLR 12/04 A3024 RMK SLP249
Loading
Personal Weather Stations






























Interactive Weather Map
Tropical Storm Tracking
New forecast layout! Learn more

10-Day Weather Forecast

Advertisements
Track Severe Weather on mobile